sensor_id;sensor_type;location;lat;lon;timestamp;pressure;altitude;pressure_sealevel;temperature;humidity
78142;BME280;67393;52.620;13.482;2023-03-01T16:57:00;102270.31;;;4.08;94.61
78142;BME280;67393;52.620;13.482;2023-03-01T16:59:27;102268.84;;;3.83;92.71
78142;BME280;67393;52.620;13.482;2023-03-01T17:01:53;102264.25;;;3.75;91.93
78142;BME280;67393;52.620;13.482;2023-03-01T17:04:19;102269.28;;;3.65;89.99
78142;BME280;67393;52.620;13.482;2023-03-01T17:06:45;102272.50;;;3.54;91.14
78142;BME280;67393;52.620;13.482;2023-03-01T17:09:12;102275.47;;;3.34;90.74
78142;BME280;67393;52.620;13.482;2023-03-01T17:11:38;102283.88;;;3.21;87.67
78142;BME280;67393;52.620;13.482;2023-03-01T17:14:04;102286.31;;;3.15;100.00
78142;BME280;67393;52.620;13.482;2023-03-01T17:16:31;102284.22;;;3.03;100.00
78142;BME280;67393;52.620;13.482;2023-03-01T17:18:57;102286.47;;;2.89;100.00
78142;BME280;67393;52.620;13.482;2023-03-01T17:21:26;102287.28;;;2.87;100.00
78142;BME280;67393;52.620;13.482;2023-03-01T17:23:56;102285.38;;;2.81;100.00
78142;BME280;67393;52.620;13.482;2023-03-01T17:26:22;102282.53;;;2.74;100.00
78142;BME280;67393;52.620;13.482;2023-03-01T17:28:49;102287.06;;;2.79;100.00
78142;BME280;67393;52.620;13.482;2023-03-01T17:31:15;102283.34;;;2.73;100.00
78142;BME280;67393;52.620;13.482;2023-03-01T17:33:41;102275.09;;;2.59;100.00
78142;BME280;67393;52.620;13.482;2023-03-01T17:36:08;102274.44;;;2.37;100.00
78142;BME280;67393;52.620;13.482;2023-03-01T17:38:34;102277.50;;;2.23;100.00
78142;BME280;67393;52.620;13.482;2023-03-01T17:41:01;102276.81;;;2.28;100.00
78142;BME280;67393;52.620;13.482;2023-03-01T17:43:27;102281.91;;;2.24;100.00
78142;BME280;67393;52.620;13.482;2023-03-01T17:45:54;102283.56;;;2.22;100.00
78142;BME280;67393;52.620;13.482;2023-03-01T17:48:21;102278.88;;;2.11;100.00
78142;BME280;67393;52.620;13.482;2023-03-01T17:50:48;102291.50;;;1.96;100.00
78142;BME280;67393;52.620;13.482;2023-03-01T17:53:14;102295.00;;;1.97;100.00
78142;BME280;67393;52.620;13.482;2023-03-01T17:55:42;102293.47;;;2.03;100.00
78142;BME280;67393;52.620;13.482;2023-03-01T17:58:11;102294.66;;;1.86;100.00
78142;BME280;67393;52.620;13.482;2023-03-01T18:00:38;102303.03;;;1.76;100.00
78142;BME280;67393;52.620;13.482;2023-03-01T18:03:05;102297.69;;;1.73;100.00
78142;BME280;67393;52.620;13.482;2023-03-01T18:05:35;102299.13;;;1.63;100.00
78142;BME280;67393;52.620;13.482;2023-03-01T18:08:02;102292.78;;;1.56;100.00
78142;BME280;67393;52.620;13.482;2023-03-01T18:10:30;102294.22;;;1.46;100.00
78142;BME280;67393;52.620;13.482;2023-03-01T18:12:57;102286.53;;;1.51;100.00
78142;BME280;67393;52.620;13.482;2023-03-01T18:15:23;102288.44;;;1.57;100.00
78142;BME280;67393;52.620;13.482;2023-03-01T18:17:49;102281.75;;;1.39;100.00
78142;BME280;67393;52.620;13.482;2023-03-01T18:20:16;102279.00;;;1.35;100.00
78142;BME280;67393;52.620;13.482;2023-03-01T18:22:42;102282.34;;;1.31;100.00
78142;BME280;67393;52.620;13.482;2023-03-01T18:25:08;102290.13;;;1.29;100.00
78142;BME280;67393;52.620;13.482;2023-03-01T18:27:35;102295.22;;;1.26;100.00
78142;BME280;67393;52.620;13.482;2023-03-01T18:30:03;102293.81;;;1.10;100.00
78142;BME280;67393;52.620;13.482;2023-03-01T18:32:29;102289.38;;;1.08;100.00
78142;BME280;67393;52.620;13.482;2023-03-01T18:34:56;102297.91;;;1.04;100.00
78142;BME280;67393;52.620;13.482;2023-03-01T18:37:22;102293.84;;;0.88;100.00
78142;BME280;67393;52.620;13.482;2023-03-01T18:39:50;102300.34;;;0.75;100.00
78142;BME280;67393;52.620;13.482;2023-03-01T18:42:17;102297.59;;;0.70;100.00
78142;BME280;67393;52.620;13.482;2023-03-01T18:44:43;102294.69;;;0.63;100.00
78142;BME280;67393;52.620;13.482;2023-03-01T18:47:09;102300.75;;;0.62;100.00
78142;BME280;67393;52.620;13.482;2023-03-01T18:49:36;102294.56;;;0.60;100.00
78142;BME280;67393;52.620;13.482;2023-03-01T18:52:02;102303.88;;;0.53;100.00
78142;BME280;67393;52.620;13.482;2023-03-01T18:54:29;102303.06;;;0.54;100.00
78142;BME280;67393;52.620;13.482;2023-03-01T18:56:55;102309.34;;;0.37;100.00
78142;BME280;67393;52.620;13.482;2023-03-01T18:59:22;102308.50;;;0.38;100.00
78142;BME280;67393;52.620;13.482;2023-03-01T19:01:48;102307.50;;;0.34;100.00
78142;BME280;67393;52.620;13.482;2023-03-01T19:04:14;102311.06;;;0.36;100.00
78142;BME280;67393;52.620;13.482;2023-03-01T19:06:41;102309.34;;;0.37;100.00
78142;BME280;67393;52.620;13.482;2023-03-01T19:09:07;102309.03;;;0.29;100.00
78142;BME280;67393;52.620;13.482;2023-03-01T19:11:34;102305.13;;;0.18;100.00
78142;BME280;67393;52.620;13.482;2023-03-01T19:14:01;102303.91;;;0.10;100.00
78142;BME280;67393;52.620;13.482;2023-03-01T19:16:30;102303.47;;;0.20;100.00
78142;BME280;67393;52.620;13.482;2023-03-01T19:19:02;102306.38;;;0.28;100.00
78142;BME280;67393;52.620;13.482;2023-03-01T19:21:29;102296.69;;;0.25;100.00
78142;BME280;67393;52.620;13.482;2023-03-01T19:23:58;102308.84;;;0.02;100.00
78142;BME280;67393;52.620;13.482;2023-03-01T19:26:26;102311.66;;;-0.14;100.00
78142;BME280;67393;52.620;13.482;2023-03-01T19:28:53;102312.91;;;-0.05;100.00
78142;BME280;67393;52.620;13.482;2023-03-01T19:31:23;102320.16;;;0.03;100.00
78142;BME280;67393;52.620;13.482;2023-03-01T19:33:50;102312.59;;;0.09;100.00
78142;BME280;67393;52.620;13.482;2023-03-01T19:36:20;102325.88;;;0.15;100.00
78142;BME280;67393;52.620;13.482;2023-03-01T19:38:47;102320.03;;;0.20;100.00
78142;BME280;67393;52.620;13.482;2023-03-01T19:41:16;102319.75;;;0.14;100.00
78142;BME280;67393;52.620;13.482;2023-03-01T19:43:43;102313.59;;;0.12;100.00
78142;BME280;67393;52.620;13.482;2023-03-01T19:46:10;102320.88;;;-0.02;100.00
78142;BME280;67393;52.620;13.482;2023-03-01T19:48:37;102317.00;;;-0.11;100.00
78142;BME280;67393;52.620;13.482;2023-03-01T19:51:04;102316.88;;;-0.14;100.00
78142;BME280;67393;52.620;13.482;2023-03-01T19:53:30;102313.44;;;-0.13;100.00
78142;BME280;67393;52.620;13.482;2023-03-01T19:55:58;102313.94;;;-0.22;100.00
78142;BME280;67393;52.620;13.482;2023-03-01T19:58:27;102312.09;;;-0.25;100.00
78142;BME280;67393;52.620;13.482;2023-03-01T20:00:56;102313.34;;;-0.36;100.00
78142;BME280;67393;52.620;13.482;2023-03-01T20:03:28;102307.81;;;-0.43;100.00
78142;BME280;67393;52.620;13.482;2023-03-01T20:05:54;102317.22;;;-0.47;100.00
78142;BME280;67393;52.620;13.482;2023-03-01T20:08:21;102314.44;;;-0.52;100.00
78142;BME280;67393;52.620;13.482;2023-03-01T20:10:48;102324.13;;;-0.49;100.00
78142;BME280;67393;52.620;13.482;2023-03-01T20:13:14;102315.19;;;-0.54;100.00
78142;BME280;67393;52.620;13.482;2023-03-01T20:15:42;102311.22;;;-0.46;100.00
78142;BME280;67393;52.620;13.482;2023-03-01T20:18:09;102315.66;;;-0.43;100.00
78142;BME280;67393;52.620;13.482;2023-03-01T20:20:36;102312.53;;;-0.56;100.00
78142;BME280;67393;52.620;13.482;2023-03-01T20:23:02;102317.59;;;-0.59;100.00
78142;BME280;67393;52.620;13.482;2023-03-01T20:25:28;102322.66;;;-0.62;100.00
